Bridgetown, Canada
Current Conditions -  °F | °C
As of 6:00 AM on Friday 24 Oct 2014 (Local Time) from CYZX Reporting Station
Drizzle Drizzle  
Wind Chill: 54°   Ceiling: 1200
Heat Index: 54°   Visibility: 4mi
Dew Point: 52°   Wind: 12mph
Humidity: 94%   Direction: 60°ENE
Pressure: 29.6"   Gusts: 20mph
Location:  44.85°N, 65.15°W
Report Text: CYZX 240900Z 06010G17KT 4SM -DZ BR SCT008 OVC012 12/11 A2960 RMK SF4SC4 WNDY HILL UNAVBL SLP023
Loading
Personal Weather Stations






























Interactive Weather Map
Tropical Storm Tracking
New forecast layout! Learn more

10-Day Weather Forecast

Advertisements
Track Severe Weather on mobile